createdAt,value
2019-04-29T00:00:27.094Z,0.00
2019-04-29T00:01:27.086Z,0.00
2019-04-29T00:02:27.071Z,0.00
2019-04-29T00:03:27.056Z,0.00
2019-04-29T00:04:27.054Z,0.00
2019-04-29T00:05:27.038Z,0.00
2019-04-29T00:06:27.055Z,0.00
2019-04-29T00:07:27.010Z,0.00
2019-04-29T00:08:26.999Z,0.00
2019-04-29T00:09:27.002Z,0.00
2019-04-29T00:10:26.994Z,0.00
2019-04-29T00:11:26.995Z,0.00
2019-04-29T00:12:26.959Z,0.00
2019-04-29T00:13:26.957Z,0.00
2019-04-29T00:14:26.936Z,0.00
2019-04-29T00:15:26.929Z,0.00
2019-04-29T00:16:26.948Z,0.00
2019-04-29T00:17:26.908Z,0.00
2019-04-29T00:18:26.890Z,0.00
2019-04-29T00:19:26.923Z,0.00
2019-04-29T00:20:26.868Z,0.00
2019-04-29T00:21:26.858Z,0.00
2019-04-29T00:22:26.875Z,0.00
2019-04-29T00:23:26.835Z,0.00
2019-04-29T00:24:26.830Z,0.00
2019-04-29T00:25:26.821Z,0.00
2019-04-29T00:26:26.803Z,0.00
2019-04-29T00:27:26.797Z,0.00
2019-04-29T00:28:26.785Z,0.00
2019-04-29T00:29:26.774Z,0.00
2019-04-29T00:30:26.759Z,0.00
2019-04-29T00:31:26.750Z,0.00
2019-04-29T00:32:26.745Z,0.00
2019-04-29T00:33:26.738Z,0.00
2019-04-29T00:34:26.716Z,0.00
2019-04-29T00:35:26.713Z,0.00
2019-04-29T00:36:26.695Z,0.00
2019-04-29T00:37:26.689Z,0.00
2019-04-29T00:38:26.707Z,0.00
2019-04-29T00:39:26.664Z,0.00
2019-04-29T00:40:26.656Z,0.00
2019-04-29T00:41:26.642Z,0.00
2019-04-29T00:42:26.648Z,0.00
2019-04-29T00:43:26.623Z,0.00
2019-04-29T00:44:26.614Z,0.00
2019-04-29T00:45:26.593Z,0.00
2019-04-29T00:46:26.588Z,0.00
2019-04-29T00:47:26.575Z,0.00
2019-04-29T00:48:26.591Z,0.00
2019-04-29T00:49:26.550Z,0.00
2019-04-29T00:50:26.539Z,0.00
2019-04-29T00:51:26.534Z,0.00
2019-04-29T00:52:26.515Z,0.00
2019-04-29T00:53:26.518Z,0.00
2019-04-29T00:54:26.512Z,0.00
2019-04-29T00:55:26.499Z,0.00
2019-04-29T00:56:26.479Z,0.00
2019-04-29T00:57:26.472Z,0.00
2019-04-29T00:58:26.458Z,0.00
2019-04-29T00:59:26.451Z,0.00
2019-04-29T01:00:26.431Z,0.00
2019-04-29T01:01:26.416Z,0.00
2019-04-29T01:02:26.409Z,0.00
2019-04-29T01:03:26.401Z,0.00
2019-04-29T01:04:26.403Z,0.00
2019-04-29T01:05:26.385Z,0.00
2019-04-29T01:06:26.369Z,0.00
2019-04-29T01:07:26.371Z,0.00
2019-04-29T01:08:26.360Z,0.00
2019-04-29T01:09:26.375Z,0.00
2019-04-29T01:10:26.318Z,0.00
2019-04-29T01:11:26.306Z,0.00
2019-04-29T01:12:26.303Z,0.00
2019-04-29T01:13:26.290Z,0.00
2019-04-29T01:14:26.284Z,0.00
2019-04-29T01:15:26.289Z,0.00
2019-04-29T01:16:26.257Z,0.00
2019-04-29T01:17:26.255Z,0.00
2019-04-29T01:18:26.265Z,0.00
2019-04-29T01:19:26.218Z,0.00
2019-04-29T01:20:26.213Z,0.00
2019-04-29T01:21:26.196Z,0.00
2019-04-29T01:22:26.187Z,0.00
2019-04-29T01:23:26.185Z,0.00
2019-04-29T01:24:26.180Z,0.00
2019-04-29T01:25:26.155Z,0.00
2019-04-29T01:26:26.148Z,0.00
2019-04-29T01:27:26.132Z,0.00
2019-04-29T01:28:26.121Z,0.00
2019-04-29T01:29:26.136Z,0.00
2019-04-29T01:30:26.104Z,0.00
2019-04-29T01:31:26.104Z,0.00
2019-04-29T01:32:26.082Z,0.00
2019-04-29T01:33:26.069Z,0.00
2019-04-29T01:34:26.071Z,0.00
2019-04-29T01:35:26.047Z,0.00
2019-04-29T01:36:26.037Z,0.00
2019-04-29T01:37:26.031Z,0.00
2019-04-29T01:38:26.015Z,0.00
2019-04-29T01:39:26.017Z,0.00
2019-04-29T01:40:25.993Z,0.00
2019-04-29T01:41:25.990Z,0.00
2019-04-29T01:42:26.010Z,0.00
2019-04-29T01:43:25.959Z,0.00
2019-04-29T01:44:25.960Z,0.00
2019-04-29T01:45:25.933Z,0.00
2019-04-29T01:46:25.927Z,0.00
2019-04-29T01:47:25.911Z,0.00
2019-04-29T01:48:25.916Z,0.00
2019-04-29T01:49:25.895Z,0.00
2019-04-29T01:50:25.877Z,0.00
2019-04-29T01:51:25.867Z,0.00
2019-04-29T01:52:25.872Z,0.00
2019-04-29T01:53:25.844Z,0.00
2019-04-29T01:54:25.872Z,0.00
2019-04-29T01:55:25.829Z,0.00
2019-04-29T01:56:25.816Z,0.00
2019-04-29T01:57:25.814Z,0.00
2019-04-29T01:58:25.792Z,0.00
2019-04-29T01:59:25.784Z,0.00
2019-04-29T02:00:25.773Z,0.00
2019-04-29T02:01:25.757Z,0.00
2019-04-29T02:02:25.759Z,0.00
2019-04-29T02:03:25.737Z,0.00
2019-04-29T02:04:25.731Z,0.00
2019-04-29T02:05:25.722Z,0.00
2019-04-29T02:06:25.708Z,0.00
2019-04-29T02:07:25.705Z,0.00
2019-04-29T02:08:25.697Z,0.00
2019-04-29T02:09:25.673Z,0.00
2019-04-29T02:10:25.666Z,0.00
2019-04-29T02:11:25.652Z,0.00
2019-04-29T02:12:25.642Z,0.00
2019-04-29T02:13:25.661Z,0.00
2019-04-29T02:14:25.613Z,0.00
2019-04-29T02:15:25.602Z,0.00
2019-04-29T02:16:25.596Z,0.00
2019-04-29T02:17:25.584Z,0.00
2019-04-29T02:18:25.573Z,0.00
2019-04-29T02:19:25.573Z,0.00
2019-04-29T02:20:25.589Z,0.00
2019-04-29T02:21:25.546Z,0.00
2019-04-29T02:22:25.538Z,0.00
2019-04-29T02:23:25.516Z,0.00
2019-04-29T02:24:25.503Z,0.00
2019-04-29T02:25:25.602Z,0.00
2019-04-29T02:26:25.491Z,0.00
2019-04-29T02:27:25.475Z,0.00
2019-04-29T02:28:25.461Z,0.00
2019-04-29T02:29:25.455Z,0.00
2019-04-29T02:30:25.468Z,0.00
2019-04-29T02:31:25.446Z,0.00
2019-04-29T02:32:25.422Z,0.00
2019-04-29T02:33:25.422Z,0.00
2019-04-29T02:34:25.400Z,0.00
2019-04-29T02:35:25.402Z,0.00
2019-04-29T02:36:29.481Z,0.00
2019-04-29T02:37:25.366Z,0.00
2019-04-29T02:38:25.381Z,0.00
2019-04-29T02:39:25.389Z,0.00
2019-04-29T02:40:25.335Z,0.00
2019-04-29T02:41:25.324Z,0.00
2019-04-29T02:42:25.309Z,0.00
2019-04-29T02:43:25.298Z,0.00
2019-04-29T02:44:25.297Z,0.00
2019-04-29T02:45:25.296Z,0.00
2019-04-29T02:46:25.271Z,0.00
2019-04-29T02:47:25.260Z,0.00
2019-04-29T02:48:30.027Z,0.00
2019-04-29T02:49:26.243Z,0.00
2019-04-29T02:50:25.231Z,0.00
2019-04-29T02:51:25.408Z,0.00
2019-04-29T02:52:25.201Z,0.00
2019-04-29T02:53:25.192Z,0.00
2019-04-29T02:54:25.182Z,0.00
2019-04-29T02:55:25.172Z,0.00
2019-04-29T02:56:25.179Z,0.00
2019-04-29T02:57:25.142Z,0.00
2019-04-29T02:58:25.133Z,0.00
2019-04-29T02:59:25.120Z,0.00
2019-04-29T03:00:25.127Z,0.00
2019-04-29T03:01:25.112Z,0.00
2019-04-29T03:02:25.092Z,0.00
2019-04-29T03:03:25.076Z,0.00
2019-04-29T03:04:25.091Z,0.00
2019-04-29T03:05:25.075Z,0.00
2019-04-29T03:06:25.074Z,0.00
2019-04-29T03:07:25.038Z,0.00
2019-04-29T03:08:25.029Z,0.00
2019-04-29T03:09:25.018Z,0.00
2019-04-29T03:10:25.026Z,0.00
2019-04-29T03:11:25.003Z,0.00
2019-04-29T03:12:24.986Z,0.00
2019-04-29T03:13:24.971Z,0.00
2019-04-29T03:14:24.964Z,0.00
2019-04-29T03:15:24.946Z,0.00
2019-04-29T03:16:24.949Z,0.00
2019-04-29T03:17:24.927Z,0.00
2019-04-29T03:18:24.920Z,0.00
2019-04-29T03:19:24.917Z,0.00
2019-04-29T03:20:24.897Z,0.00
2019-04-29T03:21:24.913Z,0.00
2019-04-29T03:22:24.871Z,0.00
2019-04-29T03:23:24.858Z,0.00
2019-04-29T03:24:24.857Z,0.00
2019-04-29T03:25:24.846Z,0.00
2019-04-29T03:26:24.832Z,0.00
2019-04-29T03:27:24.840Z,0.00
2019-04-29T03:28:24.806Z,0.00
2019-04-29T03:29:24.894Z,0.00
2019-04-29T03:30:24.798Z,0.00
2019-04-29T03:31:24.799Z,0.00
2019-04-29T03:32:24.771Z,0.00
2019-04-29T03:33:24.884Z,0.00
2019-04-29T03:34:24.916Z,0.00
2019-04-29T03:35:24.735Z,0.00
2019-04-29T03:36:24.742Z,0.00
2019-04-29T03:37:24.711Z,0.00
2019-04-29T03:38:24.729Z,0.00
2019-04-29T03:39:24.748Z,0.00
2019-04-29T03:40:24.688Z,0.00
2019-04-29T03:41:24.670Z,5.62
2019-04-29T03:42:24.670Z,5.62
2019-04-29T03:43:24.653Z,5.62
2019-04-29T03:44:24.641Z,5.62
2019-04-29T03:45:24.626Z,5.62
2019-04-29T03:46:24.613Z,5.62
2019-04-29T03:47:24.603Z,5.62
2019-04-29T03:48:24.586Z,5.62
2019-04-29T03:49:24.585Z,5.62
2019-04-29T03:50:24.563Z,5.62
2019-04-29T03:51:24.553Z,5.62
2019-04-29T03:52:24.546Z,5.62
2019-04-29T03:53:28.242Z,5.62
2019-04-29T03:54:24.538Z,5.62
2019-04-29T03:55:38.779Z,11.25
2019-04-29T03:56:25.500Z,5.62
2019-04-29T03:57:24.490Z,11.25
2019-04-29T03:58:24.479Z,11.25
2019-04-29T03:59:24.492Z,11.25
2019-04-29T04:00:24.459Z,11.25
2019-04-29T04:01:24.444Z,11.25
2019-04-29T04:02:24.442Z,16.88
2019-04-29T04:03:24.426Z,16.88
2019-04-29T04:04:24.417Z,11.25
2019-04-29T04:05:24.444Z,11.25
2019-04-29T04:06:24.397Z,11.25
2019-04-29T04:07:24.377Z,22.50
2019-04-29T04:08:24.375Z,22.50
2019-04-29T04:09:24.364Z,16.88
2019-04-29T04:10:24.354Z,11.25
2019-04-29T04:11:24.342Z,16.88
2019-04-29T04:12:24.325Z,16.88
2019-04-29T04:13:24.333Z,22.50
2019-04-29T04:14:24.309Z,22.50
2019-04-29T04:15:24.296Z,28.12
2019-04-29T04:16:24.279Z,22.50
2019-04-29T04:17:24.273Z,16.88
2019-04-29T04:18:24.304Z,22.50
2019-04-29T04:19:24.253Z,28.12
2019-04-29T04:20:24.236Z,28.12
2019-04-29T04:21:24.223Z,22.50
2019-04-29T04:22:24.227Z,22.50
2019-04-29T04:23:24.213Z,22.50
2019-04-29T04:24:24.211Z,28.12
2019-04-29T04:25:24.186Z,28.12
2019-04-29T04:26:24.217Z,28.12
2019-04-29T04:27:24.175Z,28.12
2019-04-29T04:28:24.183Z,28.12
2019-04-29T04:29:24.139Z,33.75
2019-04-29T04:30:24.138Z,28.12
2019-04-29T04:31:24.128Z,28.12
2019-04-29T04:32:24.129Z,33.75
2019-04-29T04:33:24.097Z,45.00
2019-04-29T04:34:24.103Z,45.00
2019-04-29T04:35:24.082Z,50.62
2019-04-29T04:36:24.066Z,45.00
2019-04-29T04:37:24.049Z,39.38
2019-04-29T04:38:24.045Z,39.38
2019-04-29T04:39:24.027Z,45.00
2019-04-29T04:40:24.028Z,50.62
2019-04-29T04:41:24.029Z,67.50
2019-04-29T04:42:24.007Z,73.12
2019-04-29T04:43:23.992Z,73.12
2019-04-29T04:44:23.978Z,73.12
2019-04-29T04:45:23.990Z,78.75
2019-04-29T04:46:23.951Z,84.38
2019-04-29T04:47:23.955Z,90.00
2019-04-29T04:48:23.930Z,67.50
2019-04-29T04:49:23.917Z,73.12
2019-04-29T04:50:23.916Z,101.25
2019-04-29T04:51:23.893Z,101.25
2019-04-29T04:52:23.884Z,61.88
2019-04-29T04:53:23.878Z,50.62
2019-04-29T04:54:23.895Z,61.88
2019-04-29T04:55:23.855Z,67.50
2019-04-29T04:56:23.856Z,73.12
2019-04-29T04:57:23.833Z,61.88
2019-04-29T04:58:23.829Z,50.62
2019-04-29T04:59:23.813Z,50.62
2019-04-29T05:00:23.796Z,56.25
2019-04-29T05:01:23.826Z,61.88
2019-04-29T05:02:23.788Z,56.25
2019-04-29T05:03:23.763Z,39.38
2019-04-29T05:04:23.774Z,50.62
2019-04-29T05:05:23.745Z,67.50
2019-04-29T05:06:23.754Z,67.50
2019-04-29T05:07:23.757Z,67.50
2019-04-29T05:08:23.716Z,56.25
2019-04-29T05:09:23.708Z,50.62
2019-04-29T05:10:23.691Z,78.75
2019-04-29T05:11:23.680Z,84.38
2019-04-29T05:12:23.671Z,90.00
2019-04-29T05:13:28.169Z,78.75
2019-04-29T05:14:24.694Z,78.75
2019-04-29T05:15:23.636Z,90.00
2019-04-29T05:16:23.627Z,95.62
2019-04-29T05:17:23.627Z,106.88
2019-04-29T05:18:23.610Z,129.38
2019-04-29T05:19:23.591Z,118.12
2019-04-29T05:20:23.575Z,135.00
2019-04-29T05:21:23.595Z,123.75
2019-04-29T05:22:23.552Z,163.12
2019-04-29T05:23:23.541Z,163.12
2019-04-29T05:24:23.547Z,101.25
2019-04-29T05:25:23.521Z,106.88
2019-04-29T05:26:23.513Z,112.50
2019-04-29T05:27:23.505Z,129.38
2019-04-29T05:28:23.521Z,106.88
2019-04-29T05:29:23.474Z,67.50
2019-04-29T05:30:23.488Z,50.62
2019-04-29T05:31:23.461Z,56.25
2019-04-29T05:32:23.449Z,78.75
2019-04-29T05:33:23.438Z,118.12
2019-04-29T05:34:23.438Z,95.62
2019-04-29T05:35:24.881Z,78.75
2019-04-29T05:36:23.401Z,84.38
2019-04-29T05:37:23.392Z,84.38
2019-04-29T05:38:23.383Z,78.75
2019-04-29T05:39:23.394Z,73.12
2019-04-29T05:40:23.365Z,78.75
2019-04-29T05:41:23.394Z,95.62
2019-04-29T05:42:23.332Z,112.50
2019-04-29T05:43:27.069Z,112.50
2019-04-29T05:44:24.322Z,112.50
2019-04-29T05:45:23.304Z,90.00
2019-04-29T05:46:23.382Z,95.62
2019-04-29T05:47:23.292Z,95.62
2019-04-29T05:48:23.265Z,112.50
2019-04-29T05:49:23.254Z,135.00
2019-04-29T05:50:23.251Z,135.00
2019-04-29T05:51:27.280Z,118.12
2019-04-29T05:52:24.253Z,95.62
2019-04-29T05:53:23.233Z,78.75
2019-04-29T05:54:26.913Z,78.75
2019-04-29T05:55:24.192Z,73.12
2019-04-29T05:56:23.177Z,78.75
2019-04-29T05:57:25.155Z,84.38
2019-04-29T05:58:23.165Z,67.50
2019-04-29T05:59:23.146Z,67.50
2019-04-29T06:00:24.167Z,73.12
2019-04-29T06:01:23.133Z,67.50
2019-04-29T06:02:24.025Z,56.25
2019-04-29T06:03:24.110Z,61.88
2019-04-29T06:04:23.106Z,61.88
2019-04-29T06:05:23.085Z,50.62
2019-04-29T06:06:23.085Z,56.25
2019-04-29T06:07:23.541Z,78.75
2019-04-29T06:08:23.049Z,67.50
2019-04-29T06:09:23.037Z,67.50
2019-04-29T06:10:24.696Z,90.00
2019-04-29T06:11:23.458Z,78.75
2019-04-29T06:12:23.006Z,78.75
2019-04-29T06:13:23.010Z,95.62
2019-04-29T06:14:22.987Z,106.88
2019-04-29T06:15:23.082Z,112.50
2019-04-29T06:16:22.985Z,101.25
2019-04-29T06:17:22.947Z,123.75
2019-04-29T06:18:23.819Z,140.62
2019-04-29T06:19:22.925Z,135.00
2019-04-29T06:20:23.095Z,151.88
2019-04-29T06:21:22.927Z,180.00
2019-04-29T06:22:22.891Z,157.50
2019-04-29T06:23:24.184Z,151.88
2019-04-29T06:24:22.899Z,146.25
2019-04-29T06:25:22.859Z,180.00
2019-04-29T06:26:22.854Z,151.88
2019-04-29T06:27:22.844Z,213.75
2019-04-29T06:28:26.426Z,225.00
2019-04-29T06:29:23.818Z,208.12
2019-04-29T06:30:22.810Z,202.50
2019-04-29T06:31:22.797Z,247.50
2019-04-29T06:32:25.055Z,275.62
2019-04-29T06:33:24.312Z,281.25
2019-04-29T06:34:23.757Z,270.00
2019-04-29T06:35:22.764Z,230.62
2019-04-29T06:36:22.742Z,258.75
2019-04-29T06:37:22.735Z,241.88
2019-04-29T06:38:22.715Z,281.25
2019-04-29T06:39:22.704Z,253.12
2019-04-29T06:40:22.695Z,303.75
2019-04-29T06:41:22.686Z,281.25
2019-04-29T06:42:22.719Z,275.62
2019-04-29T06:43:24.709Z,343.12
2019-04-29T06:44:23.651Z,320.62
2019-04-29T06:45:22.648Z,264.38
2019-04-29T06:46:22.626Z,286.88
2019-04-29T06:47:22.619Z,298.12
2019-04-29T06:48:22.617Z,303.75
2019-04-29T06:49:22.598Z,275.62
2019-04-29T06:50:22.582Z,275.62
2019-04-29T06:51:22.575Z,275.62
2019-04-29T06:52:22.582Z,315.00
2019-04-29T06:53:23.252Z,275.62
2019-04-29T06:54:22.547Z,258.75
2019-04-29T06:55:22.537Z,292.50
2019-04-29T06:56:22.518Z,275.62
2019-04-29T06:57:22.521Z,298.12
2019-04-29T06:58:22.506Z,270.00
2019-04-29T06:59:22.496Z,236.25
2019-04-29T07:00:24.021Z,185.62
2019-04-29T07:01:22.461Z,168.75
2019-04-29T07:02:22.456Z,157.50
2019-04-29T07:03:25.485Z,163.12
2019-04-29T07:04:22.429Z,168.75
2019-04-29T07:05:22.430Z,157.50
2019-04-29T07:06:22.412Z,146.25
2019-04-29T07:07:22.403Z,146.25
2019-04-29T07:08:22.388Z,140.62
2019-04-29T07:09:22.422Z,129.38
2019-04-29T07:10:26.843Z,140.62
2019-04-29T07:11:22.407Z,140.62
2019-04-29T07:12:22.349Z,129.38
2019-04-29T07:13:22.759Z,106.88
2019-04-29T07:14:22.322Z,106.88
2019-04-29T07:15:22.349Z,90.00
2019-04-29T07:16:27.289Z,90.00
2019-04-29T07:17:23.283Z,112.50
2019-04-29T07:18:22.291Z,67.50
2019-04-29T07:19:26.336Z,101.25
2019-04-29T07:20:22.260Z,95.62
2019-04-29T07:21:22.243Z,106.88
2019-04-29T07:22:25.838Z,101.25
2019-04-29T07:23:23.225Z,106.88
2019-04-29T07:24:22.209Z,123.75
2019-04-29T07:25:24.795Z,140.62
2019-04-29T07:26:23.190Z,157.50
2019-04-29T07:27:22.175Z,140.62
2019-04-29T07:28:22.202Z,146.25
2019-04-29T07:29:29.813Z,185.62
2019-04-29T07:30:23.149Z,185.62
2019-04-29T07:31:22.138Z,185.62
2019-04-29T07:32:22.139Z,157.50
2019-04-29T07:33:23.989Z,135.00
2019-04-29T07:34:22.100Z,151.88
2019-04-29T07:35:22.093Z,180.00
2019-04-29T07:36:22.791Z,191.25
2019-04-29T07:37:22.083Z,168.75
2019-04-29T07:38:22.058Z,140.62
2019-04-29T07:39:22.050Z,157.50
2019-04-29T07:40:22.037Z,196.88
2019-04-29T07:41:22.038Z,151.88
2019-04-29T07:42:25.057Z,151.88
2019-04-29T07:43:23.007Z,180.00
2019-04-29T07:44:21.990Z,292.50
2019-04-29T07:45:23.902Z,292.50
2019-04-29T07:46:22.969Z,331.88
2019-04-29T07:47:24.954Z,360.00
2019-04-29T07:48:22.949Z,405.00
2019-04-29T07:49:21.939Z,382.50
2019-04-29T07:50:22.317Z,331.88
2019-04-29T07:51:21.909Z,315.00
2019-04-29T07:52:21.904Z,320.62
2019-04-29T07:53:34.113Z,343.12
2019-04-29T07:54:22.884Z,399.38
2019-04-29T07:55:25.938Z,371.25
2019-04-29T07:56:22.861Z,309.38
2019-04-29T07:57:21.844Z,309.38
2019-04-29T07:58:22.970Z,298.12
2019-04-29T07:59:22.831Z,241.88
2019-04-29T08:00:21.818Z,230.62
2019-04-29T08:01:24.629Z,230.62
2019-04-29T08:02:21.795Z,202.50
2019-04-29T08:03:21.785Z,168.75
2019-04-29T08:04:21.786Z,146.25
2019-04-29T08:05:21.770Z,135.00
2019-04-29T08:06:21.793Z,135.00
2019-04-29T08:07:21.742Z,123.75
2019-04-29T08:08:22.871Z,112.50
2019-04-29T08:09:21.715Z,135.00
2019-04-29T08:10:23.609Z,118.12
2019-04-29T08:11:21.691Z,163.12
2019-04-29T08:12:21.691Z,202.50
2019-04-29T08:13:21.674Z,163.12
2019-04-29T08:14:21.663Z,208.12
2019-04-29T08:15:21.651Z,230.62
2019-04-29T08:16:21.636Z,258.75
2019-04-29T08:17:21.629Z,241.88
2019-04-29T08:18:21.621Z,230.62
2019-04-29T08:19:24.749Z,241.88
2019-04-29T08:20:22.608Z,281.25
2019-04-29T08:21:21.592Z,230.62
2019-04-29T08:22:22.905Z,264.38
2019-04-29T08:23:22.563Z,258.75
2019-04-29T08:24:21.550Z,320.62
2019-04-29T08:25:25.623Z,281.25
2019-04-29T08:26:21.528Z,264.38
2019-04-29T08:27:21.543Z,236.25
2019-04-29T08:28:21.514Z,281.25
2019-04-29T08:29:21.500Z,258.75
2019-04-29T08:30:21.489Z,292.50
2019-04-29T08:31:22.259Z,275.62
2019-04-29T08:32:21.459Z,292.50
2019-04-29T08:33:21.465Z,298.12
2019-04-29T08:34:23.065Z,281.25
2019-04-29T08:35:21.426Z,343.12
2019-04-29T08:36:21.416Z,360.00
2019-04-29T08:37:21.406Z,309.38
2019-04-29T08:38:21.411Z,393.75
2019-04-29T08:39:25.105Z,450.00
2019-04-29T08:40:22.394Z,495.00
2019-04-29T08:41:28.494Z,556.88
2019-04-29T08:42:22.354Z,585.00
2019-04-29T08:43:22.405Z,669.38
2019-04-29T08:44:21.334Z,748.12
2019-04-29T08:45:21.323Z,720.00
2019-04-29T08:46:21.313Z,596.25
2019-04-29T08:47:22.961Z,613.12
2019-04-29T08:48:22.302Z,725.62
2019-04-29T08:49:21.276Z,781.88
2019-04-29T08:50:21.265Z,675.00
2019-04-29T08:51:21.258Z,781.88
2019-04-29T08:52:21.244Z,826.88
2019-04-29T08:53:21.259Z,855.00
2019-04-29T08:54:21.365Z,1029.38
2019-04-29T08:55:21.217Z,1012.50
2019-04-29T08:56:21.201Z,1001.25
2019-04-29T08:57:21.188Z,1136.25
2019-04-29T08:58:21.220Z,1918.12
2019-04-29T08:59:24.467Z,1603.12
2019-04-29T09:00:21.153Z,1468.12
2019-04-29T09:01:24.337Z,1203.75
2019-04-29T09:02:33.858Z,1080.00
2019-04-29T09:03:23.364Z,1006.88
2019-04-29T09:04:21.117Z,1063.12
2019-04-29T09:05:21.109Z,765.00
2019-04-29T09:06:21.090Z,691.88
2019-04-29T09:07:22.227Z,759.38
2019-04-29T09:08:21.223Z,770.62
2019-04-29T09:09:29.219Z,753.75
2019-04-29T09:10:22.049Z,770.62
2019-04-29T09:11:21.050Z,821.25
2019-04-29T09:12:24.168Z,652.50
2019-04-29T09:13:22.018Z,618.75
2019-04-29T09:14:21.006Z,697.50
2019-04-29T09:15:20.992Z,675.00
2019-04-29T09:16:20.982Z,646.88
2019-04-29T09:17:21.029Z,939.38
2019-04-29T09:18:20.965Z,765.00
2019-04-29T09:19:20.946Z,590.62
2019-04-29T09:20:20.939Z,472.50
2019-04-29T09:21:20.940Z,478.12
2019-04-29T09:22:20.919Z,478.12
2019-04-29T09:23:20.902Z,568.12
2019-04-29T09:24:20.898Z,534.38
2019-04-29T09:25:21.433Z,579.38
2019-04-29T09:26:24.194Z,720.00
2019-04-29T09:27:20.868Z,759.38
2019-04-29T09:28:27.132Z,748.12
2019-04-29T09:29:21.836Z,596.25
2019-04-29T09:30:20.827Z,579.38
2019-04-29T09:31:20.811Z,562.50
2019-04-29T09:32:20.809Z,568.12
2019-04-29T09:33:20.792Z,601.88
2019-04-29T09:34:24.680Z,562.50
2019-04-29T09:35:21.770Z,590.62
2019-04-29T09:36:20.760Z,607.50
2019-04-29T09:37:22.892Z,736.88
2019-04-29T09:38:20.741Z,793.12
2019-04-29T09:39:21.401Z,720.00
2019-04-29T09:40:20.718Z,871.88
2019-04-29T09:41:20.711Z,776.25
2019-04-29T09:42:20.684Z,804.38
2019-04-29T09:43:21.566Z,720.00
2019-04-29T09:44:21.658Z,900.00
2019-04-29T09:45:24.356Z,871.88
2019-04-29T09:46:20.644Z,900.00
2019-04-29T09:47:20.636Z,1057.50
2019-04-29T09:48:20.622Z,956.25
2019-04-29T09:49:20.617Z,1074.38
2019-04-29T09:50:20.597Z,860.62
2019-04-29T09:51:22.786Z,1186.88
2019-04-29T09:52:21.577Z,1102.50
2019-04-29T09:53:20.576Z,1018.12
2019-04-29T09:54:20.556Z,1102.50
2019-04-29T09:55:20.547Z,905.62
2019-04-29T09:56:20.531Z,984.38
2019-04-29T09:57:20.527Z,843.75
2019-04-29T09:58:20.522Z,658.12
2019-04-29T09:59:20.502Z,680.62
2019-04-29T10:00:20.491Z,781.88
2019-04-29T10:01:20.980Z,753.75
2019-04-29T10:02:20.469Z,624.38
2019-04-29T10:03:20.470Z,669.38
2019-04-29T10:04:20.463Z,736.88
2019-04-29T10:05:20.458Z,675.00
2019-04-29T10:06:20.431Z,675.00
2019-04-29T10:07:20.410Z,770.62
2019-04-29T10:08:20.398Z,613.12
2019-04-29T10:09:20.403Z,630.00
2019-04-29T10:10:20.404Z,759.38
2019-04-29T10:11:20.366Z,663.75
2019-04-29T10:12:20.359Z,579.38
2019-04-29T10:13:20.346Z,697.50
2019-04-29T10:14:20.340Z,579.38
2019-04-29T10:15:20.336Z,556.88
2019-04-29T10:16:20.326Z,523.12
2019-04-29T10:17:20.312Z,545.62
2019-04-29T10:18:20.316Z,506.25
2019-04-29T10:19:20.280Z,511.88
2019-04-29T10:20:20.303Z,489.38
2019-04-29T10:21:21.534Z,568.12
2019-04-29T10:22:20.246Z,635.62
2019-04-29T10:23:20.240Z,607.50
2019-04-29T10:24:20.226Z,607.50
2019-04-29T10:25:20.213Z,635.62
2019-04-29T10:26:20.232Z,663.75
2019-04-29T10:27:20.196Z,624.38
2019-04-29T10:28:20.193Z,748.12
2019-04-29T10:29:20.385Z,826.88
2019-04-29T10:30:20.154Z,911.25
2019-04-29T10:31:20.144Z,720.00
2019-04-29T10:32:20.143Z,686.25
2019-04-29T10:33:22.947Z,804.38
2019-04-29T10:34:20.118Z,748.12
2019-04-29T10:35:20.102Z,742.50
2019-04-29T10:36:20.562Z,680.62
2019-04-29T10:37:23.194Z,652.50
2019-04-29T10:38:21.064Z,686.25
2019-04-29T10:39:22.685Z,742.50
2019-04-29T10:40:20.047Z,669.38
2019-04-29T10:41:20.040Z,697.50
2019-04-29T10:42:22.826Z,765.00
2019-04-29T10:43:20.089Z,714.38
2019-04-29T10:44:20.008Z,669.38
2019-04-29T10:45:20.046Z,736.88
2019-04-29T10:46:19.995Z,787.50
2019-04-29T10:47:20.007Z,686.25
2019-04-29T10:48:19.971Z,815.62
2019-04-29T10:49:19.942Z,748.12
2019-04-29T10:50:19.944Z,708.75
2019-04-29T10:51:23.296Z,770.62
2019-04-29T10:52:20.913Z,781.88
2019-04-29T10:53:19.928Z,765.00
2019-04-29T10:54:19.887Z,742.50
2019-04-29T10:55:19.881Z,838.12
2019-04-29T10:56:19.913Z,860.62
2019-04-29T10:57:19.862Z,810.00
2019-04-29T10:58:22.505Z,736.88
2019-04-29T10:59:20.864Z,686.25
2019-04-29T11:00:21.773Z,770.62
2019-04-29T11:01:19.818Z,810.00
2019-04-29T11:02:19.800Z,821.25
2019-04-29T11:03:20.786Z,748.12
2019-04-29T11:04:19.824Z,641.25
2019-04-29T11:05:19.780Z,748.12
2019-04-29T11:06:19.757Z,742.50
2019-04-29T11:07:26.340Z,765.00
2019-04-29T11:08:20.738Z,787.50
2019-04-29T11:09:19.726Z,759.38
2019-04-29T11:10:25.214Z,798.75
2019-04-29T11:11:23.269Z,849.38
2019-04-29T11:12:20.697Z,855.00
2019-04-29T11:13:19.687Z,731.25
2019-04-29T11:14:19.679Z,725.62
2019-04-29T11:15:19.676Z,849.38
2019-04-29T11:16:22.840Z,826.88
2019-04-29T11:17:20.639Z,815.62
2019-04-29T11:18:23.165Z,826.88
2019-04-29T11:19:20.621Z,658.12
2019-04-29T11:20:21.526Z,669.38
2019-04-29T11:21:19.602Z,714.38
2019-04-29T11:22:19.602Z,815.62
2019-04-29T11:23:19.569Z,686.25
2019-04-29T11:24:19.984Z,770.62
2019-04-29T11:25:19.640Z,607.50
2019-04-29T11:26:19.536Z,551.25
2019-04-29T11:27:19.543Z,708.75
2019-04-29T11:28:19.524Z,736.88
2019-04-29T11:29:22.123Z,753.75
2019-04-29T11:30:20.509Z,703.12
2019-04-29T11:31:19.497Z,748.12
2019-04-29T11:32:19.476Z,742.50
2019-04-29T11:33:19.464Z,641.25
2019-04-29T11:34:19.449Z,658.12
2019-04-29T11:35:19.459Z,573.75
2019-04-29T11:36:19.430Z,506.25
2019-04-29T11:37:19.609Z,528.75
2019-04-29T11:38:19.417Z,506.25
2019-04-29T11:39:19.399Z,506.25
2019-04-29T11:40:20.568Z,528.75
2019-04-29T11:41:20.771Z,450.00
2019-04-29T11:42:19.367Z,421.88
2019-04-29T11:43:19.349Z,382.50
2019-04-29T11:44:21.963Z,393.75
2019-04-29T11:45:20.335Z,405.00
2019-04-29T11:46:21.003Z,410.62
2019-04-29T11:47:20.921Z,433.12
2019-04-29T11:48:20.362Z,466.88
2019-04-29T11:49:19.287Z,495.00
2019-04-29T11:50:19.280Z,523.12
2019-04-29T11:51:19.271Z,579.38
2019-04-29T11:52:19.269Z,596.25
2019-04-29T11:53:19.252Z,646.88
2019-04-29T11:54:19.233Z,646.88
2019-04-29T11:55:20.199Z,663.75
2019-04-29T11:56:19.207Z,686.25
2019-04-29T11:57:19.231Z,686.25
2019-04-29T11:58:19.195Z,703.12
2019-04-29T11:59:19.194Z,720.00
2019-04-29T12:00:19.169Z,748.12
2019-04-29T12:01:19.158Z,770.62
2019-04-29T12:02:23.433Z,781.88
2019-04-29T12:03:20.174Z,810.00
2019-04-29T12:04:19.171Z,838.12
2019-04-29T12:05:19.135Z,894.38
2019-04-29T12:06:20.779Z,922.50
2019-04-29T12:07:21.115Z,911.25
2019-04-29T12:08:19.079Z,877.50
2019-04-29T12:09:19.102Z,860.62
2019-04-29T12:10:19.059Z,883.12
2019-04-29T12:11:19.049Z,922.50
2019-04-29T12:12:19.036Z,973.12
2019-04-29T12:13:25.541Z,1023.75
2019-04-29T12:14:20.065Z,1046.25
2019-04-29T12:15:19.004Z,1057.50
2019-04-29T12:16:19.740Z,1063.12
2019-04-29T12:17:18.975Z,1035.00
2019-04-29T12:18:18.973Z,1006.88
2019-04-29T12:19:21.356Z,956.25
2019-04-29T12:20:18.959Z,911.25
2019-04-29T12:21:18.935Z,860.62
2019-04-29T12:22:28.334Z,838.12
2019-04-29T12:23:19.909Z,821.25
2019-04-29T12:24:19.225Z,815.62
2019-04-29T12:25:18.901Z,804.38
2019-04-29T12:26:18.903Z,804.38
2019-04-29T12:27:19.691Z,804.38
2019-04-29T12:28:19.661Z,804.38
2019-04-29T12:29:19.613Z,821.25
2019-04-29T12:30:18.850Z,810.00
2019-04-29T12:31:18.831Z,787.50
2019-04-29T12:32:20.766Z,826.88
2019-04-29T12:33:19.808Z,871.88
2019-04-29T12:34:18.791Z,894.38
2019-04-29T12:35:21.553Z,900.00
2019-04-29T12:36:18.773Z,928.12
2019-04-29T12:37:18.771Z,995.62
2019-04-29T12:38:18.757Z,1057.50
2019-04-29T12:39:19.880Z,1108.12
2019-04-29T12:40:19.770Z,1113.75
2019-04-29T12:41:21.059Z,1153.12
2019-04-29T12:42:18.707Z,1198.12
2019-04-29T12:43:18.694Z,1288.12
2019-04-29T12:44:18.697Z,1395.00
2019-04-29T12:45:19.776Z,1485.00
2019-04-29T12:46:18.676Z,1575.00